createdAt,value
2022-12-29T00:03:05.416Z,4.25
2022-12-29T00:08:08.355Z,4.28
2022-12-29T00:13:31.357Z,4.31
2022-12-29T00:18:34.070Z,4.36
2022-12-29T00:23:56.238Z,4.37
2022-12-29T00:29:17.620Z,4.39
2022-12-29T00:34:39.780Z,4.42
2022-12-29T00:40:01.112Z,4.41
2022-12-29T00:45:04.125Z,4.42
2022-12-29T00:50:07.189Z,4.44
2022-12-29T00:55:09.897Z,4.43
2022-12-29T01:00:13.216Z,4.41
2022-12-29T01:05:16.846Z,4.39
2022-12-29T01:10:21.192Z,4.35
2022-12-29T01:15:23.873Z,4.33
2022-12-29T01:20:28.700Z,4.31
2022-12-29T01:25:31.849Z,4.26
2022-12-29T01:30:35.879Z,4.24
2022-12-29T01:35:38.585Z,4.21
2022-12-29T01:40:48.319Z,4.18
2022-12-29T01:45:55.271Z,4.15
2022-12-29T01:50:58.115Z,4.12
2022-12-29T01:56:08.028Z,4.12
2022-12-29T02:01:11.492Z,4.10
2022-12-29T02:06:24.981Z,4.06
2022-12-29T02:11:31.038Z,4.05
2022-12-29T02:16:36.537Z,4.03
2022-12-29T02:22:10.069Z,4.02
2022-12-29T02:27:31.434Z,4.05
2022-12-29T02:32:46.145Z,4.03
2022-12-29T02:38:26.104Z,4.05
2022-12-29T02:44:04.080Z,4.06
2022-12-29T02:49:20.224Z,4.06
2022-12-29T02:54:41.943Z,4.07
2022-12-29T02:59:46.112Z,4.06
2022-12-29T03:05:16.273Z,4.08
2022-12-29T03:10:31.797Z,4.08
2022-12-29T03:16:05.488Z,4.09
2022-12-29T03:21:13.672Z,4.11
2022-12-29T03:26:19.654Z,4.10
2022-12-29T03:31:24.982Z,4.10
2022-12-29T03:36:46.359Z,4.07
2022-12-29T03:41:52.088Z,4.07
2022-12-29T03:46:54.814Z,4.05
2022-12-29T03:51:57.539Z,4.04
2022-12-29T03:57:00.472Z,4.04
2022-12-29T04:02:03.506Z,3.99
2022-12-29T04:07:06.325Z,3.96
2022-12-29T04:12:09.048Z,3.96
2022-12-29T04:17:11.738Z,3.93
2022-12-29T04:22:14.441Z,3.89
2022-12-29T04:27:17.157Z,3.89
2022-12-29T04:32:21.570Z,3.89
2022-12-29T04:37:24.242Z,3.92
2022-12-29T04:42:26.959Z,3.91
2022-12-29T04:47:29.664Z,3.93
2022-12-29T04:52:32.368Z,3.97
2022-12-29T04:57:35.105Z,3.99
2022-12-29T05:02:38.789Z,4.02
2022-12-29T05:07:41.898Z,4.03
2022-12-29T05:12:44.669Z,4.02
2022-12-29T05:17:47.383Z,4.03
2022-12-29T05:22:50.198Z,4.05
2022-12-29T05:27:52.888Z,4.05
2022-12-29T05:32:55.643Z,4.07
2022-12-29T05:37:58.368Z,4.09
2022-12-29T05:43:01.092Z,4.08
2022-12-29T05:48:04.396Z,4.07
2022-12-29T05:53:07.040Z,4.09
2022-12-29T05:58:10.471Z,4.10
2022-12-29T06:03:13.305Z,4.14
2022-12-29T06:08:16.373Z,4.16
2022-12-29T06:13:19.122Z,4.18
2022-12-29T06:18:22.198Z,4.20
2022-12-29T06:23:24.904Z,4.18
2022-12-29T06:28:27.713Z,4.21
2022-12-29T06:33:31.106Z,4.23
2022-12-29T06:38:33.906Z,4.24
2022-12-29T06:43:39.324Z,4.25
2022-12-29T06:48:43.407Z,4.19
2022-12-29T06:53:46.103Z,4.12
2022-12-29T06:58:48.827Z,4.02
2022-12-29T07:03:51.568Z,3.95
2022-12-29T07:08:56.218Z,3.97
2022-12-29T07:14:02.219Z,4.02
2022-12-29T07:19:05.650Z,4.15
2022-12-29T07:24:08.606Z,4.24
2022-12-29T07:29:11.321Z,4.32
2022-12-29T07:34:14.047Z,4.38
2022-12-29T07:39:16.865Z,4.39
2022-12-29T07:44:19.891Z,4.46
2022-12-29T07:49:22.719Z,4.53
2022-12-29T07:54:25.456Z,4.57
2022-12-29T07:59:28.173Z,4.66
2022-12-29T08:04:30.876Z,4.71
2022-12-29T08:09:33.675Z,4.73
2022-12-29T08:14:36.661Z,4.76
2022-12-29T08:19:39.669Z,4.79
2022-12-29T08:24:42.464Z,4.87
2022-12-29T08:29:45.223Z,5.00
2022-12-29T08:34:47.963Z,5.05
2022-12-29T08:39:50.662Z,5.12
2022-12-29T08:44:53.387Z,5.21
2022-12-29T08:49:56.238Z,5.30
2022-12-29T08:54:58.985Z,5.33
2022-12-29T09:00:02.076Z,5.31
2022-12-29T09:05:05.590Z,5.31
2022-12-29T09:10:08.497Z,5.34
2022-12-29T09:15:11.469Z,5.46
2022-12-29T09:20:16.428Z,5.68
2022-12-29T09:25:19.332Z,5.93
2022-12-29T09:30:24.264Z,6.15
2022-12-29T09:35:27.056Z,6.25
2022-12-29T09:40:33.149Z,6.23
2022-12-29T09:45:46.884Z,6.19
2022-12-29T09:50:56.265Z,6.14
2022-12-29T09:56:01.987Z,6.17
2022-12-29T10:01:07.872Z,6.23
2022-12-29T10:06:28.517Z,6.28
2022-12-29T10:11:58.868Z,6.34
2022-12-29T10:17:04.576Z,6.34
2022-12-29T10:22:16.226Z,6.28
2022-12-29T10:27:19.913Z,6.37
2022-12-29T10:32:43.245Z,6.55
2022-12-29T10:38:48.410Z,6.68
2022-12-29T10:43:54.062Z,6.89
2022-12-29T10:48:56.970Z,7.11
2022-12-29T10:54:11.892Z,7.26
2022-12-29T10:59:27.304Z,7.31
2022-12-29T11:05:11.583Z,7.32
2022-12-29T11:10:42.124Z,7.32
2022-12-29T11:15:47.543Z,7.31
2022-12-29T11:21:02.430Z,7.26
2022-12-29T11:26:11.544Z,7.25
2022-12-29T11:31:18.774Z,7.19
2022-12-29T11:36:24.611Z,7.14
2022-12-29T11:41:30.237Z,7.15
2022-12-29T11:46:35.877Z,7.22
2022-12-29T11:51:50.394Z,7.28
2022-12-29T11:56:54.318Z,7.23
2022-12-29T12:01:59.532Z,7.13
2022-12-29T12:07:43.113Z,6.99
2022-12-29T12:12:51.328Z,6.93
2022-12-29T12:18:12.113Z,6.88
2022-12-29T12:23:25.111Z,6.92
2022-12-29T12:28:59.506Z,7.01
2022-12-29T12:34:06.479Z,7.02
2022-12-29T12:39:26.709Z,6.97
2022-12-29T12:44:53.998Z,6.91
2022-12-29T12:50:08.779Z,6.93
2022-12-29T12:55:29.556Z,6.94
2022-12-29T13:00:43.435Z,6.91
2022-12-29T13:06:05.934Z,6.90
2022-12-29T13:11:14.784Z,6.91
2022-12-29T13:16:42.326Z,6.82
2022-12-29T13:22:01.824Z,6.69
2022-12-29T13:27:15.561Z,6.54
2022-12-29T13:32:28.475Z,6.44
2022-12-29T13:37:34.994Z,6.40
2022-12-29T13:42:38.322Z,6.40
2022-12-29T13:47:46.915Z,6.44
2022-12-29T13:52:49.641Z,6.45
2022-12-29T13:58:01.516Z,6.46
2022-12-29T14:03:50.081Z,6.48
2022-12-29T14:08:56.651Z,6.51
2022-12-29T14:14:11.000Z,6.52
2022-12-29T14:19:18.679Z,6.51
2022-12-29T14:24:33.679Z,6.52
2022-12-29T14:29:39.230Z,6.55
2022-12-29T14:34:50.322Z,6.59
2022-12-29T14:40:15.261Z,6.65
2022-12-29T14:45:17.988Z,6.69
2022-12-29T14:50:42.596Z,6.71
2022-12-29T14:55:56.205Z,6.74
2022-12-29T15:01:00.741Z,6.75
2022-12-29T15:06:17.887Z,6.78
2022-12-29T15:11:30.038Z,6.77
2022-12-29T15:16:37.280Z,6.78
2022-12-29T15:21:43.324Z,6.78
2022-12-29T15:26:55.794Z,6.79
2022-12-29T15:32:16.445Z,6.83
2022-12-29T15:37:23.692Z,6.85
2022-12-29T15:42:47.968Z,6.83
2022-12-29T15:47:55.709Z,6.84
2022-12-29T15:53:00.088Z,6.79
2022-12-29T15:58:07.231Z,6.66
2022-12-29T16:03:15.174Z,6.53
2022-12-29T16:08:38.233Z,6.44
2022-12-29T16:13:42.290Z,6.34
2022-12-29T16:18:45.692Z,6.28
2022-12-29T16:23:52.241Z,6.26
2022-12-29T16:28:58.307Z,6.27
2022-12-29T16:34:13.416Z,6.31
2022-12-29T16:39:27.544Z,6.32
2022-12-29T16:44:31.706Z,6.36
2022-12-29T16:49:36.565Z,6.45
2022-12-29T16:54:40.507Z,6.50
2022-12-29T16:59:43.955Z,6.55
2022-12-29T17:04:49.519Z,6.59
2022-12-29T17:09:54.360Z,6.62
2022-12-29T17:15:00.617Z,6.65
2022-12-29T17:20:25.314Z,6.65
2022-12-29T17:25:34.961Z,6.62
2022-12-29T17:30:37.707Z,6.60
2022-12-29T17:35:40.448Z,6.59
2022-12-29T17:40:43.223Z,6.56
2022-12-29T17:45:51.825Z,6.60
2022-12-29T17:50:55.106Z,6.60
2022-12-29T17:55:57.914Z,6.60
2022-12-29T18:01:03.052Z,6.62
2022-12-29T18:06:08.409Z,6.63
2022-12-29T18:11:24.982Z,6.62
2022-12-29T18:16:28.221Z,6.66
2022-12-29T18:21:31.465Z,6.66
2022-12-29T18:26:35.944Z,6.60
2022-12-29T18:31:38.997Z,6.52
2022-12-29T18:36:41.778Z,6.45
2022-12-29T18:41:44.504Z,6.37
2022-12-29T18:46:47.848Z,6.32
2022-12-29T18:51:50.614Z,6.28
2022-12-29T18:56:53.414Z,6.26
2022-12-29T19:01:56.413Z,6.26
2022-12-29T19:06:59.490Z,6.27
2022-12-29T19:12:02.181Z,6.26
2022-12-29T19:17:04.984Z,6.20
2022-12-29T19:22:07.675Z,6.11
2022-12-29T19:27:10.562Z,6.04
2022-12-29T19:32:13.375Z,5.97
2022-12-29T19:37:16.156Z,5.97
2022-12-29T19:42:18.876Z,5.97
2022-12-29T19:47:23.669Z,6.00
2022-12-29T19:52:29.151Z,6.03
2022-12-29T19:57:32.280Z,6.05
2022-12-29T20:02:35.409Z,6.06
2022-12-29T20:07:38.823Z,6.10
2022-12-29T20:12:41.523Z,6.13
2022-12-29T20:18:14.897Z,6.14
2022-12-29T20:23:06.950Z,6.10
2022-12-29T20:28:10.085Z,6.09
2022-12-29T20:33:12.930Z,6.05
2022-12-29T20:38:15.885Z,5.96
2022-12-29T20:43:18.675Z,5.82
2022-12-29T20:48:21.729Z,5.60
2022-12-29T20:53:24.505Z,5.39
2022-12-29T20:58:27.248Z,5.19
2022-12-29T21:03:30.402Z,5.07
2022-12-29T21:08:33.907Z,5.02
2022-12-29T21:13:36.757Z,5.07
2022-12-29T21:18:40.095Z,5.15
2022-12-29T21:23:42.891Z,5.23
2022-12-29T21:28:46.313Z,5.32
2022-12-29T21:33:49.229Z,5.45
2022-12-29T21:38:52.626Z,5.59
2022-12-29T21:44:14.140Z,5.66
2022-12-29T21:49:17.162Z,5.73
2022-12-29T21:54:48.827Z,5.78
2022-12-29T22:00:10.423Z,5.82
2022-12-29T22:05:33.923Z,5.86
2022-12-29T22:11:02.573Z,5.91
2022-12-29T22:16:08.750Z,5.98
2022-12-29T22:21:11.676Z,6.02
2022-12-29T22:26:15.663Z,6.06
2022-12-29T22:31:28.031Z,6.06
2022-12-29T22:36:32.427Z,6.09
2022-12-29T22:41:35.219Z,6.12
2022-12-29T22:46:38.003Z,6.12
2022-12-29T22:51:40.797Z,6.09
2022-12-29T22:56:43.578Z,6.03
2022-12-29T23:01:46.718Z,5.94
2022-12-29T23:06:49.460Z,5.84
2022-12-29T23:11:53.375Z,5.76
2022-12-29T23:16:56.084Z,5.71
2022-12-29T23:21:58.832Z,5.69
2022-12-29T23:27:01.580Z,5.72
2022-12-29T23:32:04.365Z,5.75
2022-12-29T23:37:07.142Z,5.74
2022-12-29T23:42:11.359Z,5.75
2022-12-29T23:47:14.022Z,5.73
2022-12-29T23:52:16.745Z,5.71
2022-12-29T23:57:19.489Z,5.69
